Time;durP1;ratioP1;P1;durP2;ratioP2;P2;SDS_P1;SDS_P2;PMS_P1;PMS_P2;Temp;Humidity;BMP_temperature;BMP_pressure;BME280_temperature;BME280_humidity;BME280_pressure;Samples;Min_cycle;Max_cycle;Signal;HPM_P1;HPM_P2
2023/09/29 00:00:54;;;;;;;22.00;5.68;;;16.00;99.90;;;;;;5048277;28;20045;-80
2023/09/29 00:03:20;;;;;;;24.75;6.55;;;16.10;99.90;;;;;;5067167;28;20968;-79
2023/09/29 00:05:46;;;;;;;21.00;5.47;;;16.10;99.90;;;;;;5066849;28;20037;-79
2023/09/29 00:08:16;;;;;;;19.67;5.05;;;16.10;99.90;;;;;;5047847;28;22383;-79
2023/09/29 00:10:45;;;;;;;23.10;5.22;;;16.00;99.90;;;;;;5083798;28;20052;-79
2023/09/29 00:13:14;;;;;;;20.17;5.70;;;16.10;99.90;;;;;;5065731;28;20049;-80
2023/09/29 00:15:39;;;;;;;24.55;6.50;;;16.10;99.90;;;;;;5079345;28;20433;-79
2023/09/29 00:18:07;;;;;;;17.88;5.20;;;16.10;99.90;;;;;;5071483;28;20041;-81
2023/09/29 00:20:33;;;;;;;21.30;5.20;;;16.10;99.90;;;;;;5065131;28;20040;-81
2023/09/29 00:23:00;;;;;;;24.75;6.40;;;16.10;99.90;;;;;;5050855;28;20040;-80
2023/09/29 00:25:27;;;;;;;21.67;6.05;;;16.10;99.90;;;;;;5066771;28;20048;-81
2023/09/29 00:27:55;;;;;;;22.25;5.63;;;16.00;99.90;;;;;;5068516;28;20509;-80
2023/09/29 00:30:21;;;;;;;22.23;5.70;;;16.10;99.90;;;;;;5064894;28;20051;-79
2023/09/29 00:32:50;;;;;;;22.63;5.40;;;16.00;99.90;;;;;;5063606;28;20119;-80
2023/09/29 00:35:27;;;;;;;28.35;7.13;;;16.00;99.90;;;;;;5068640;28;20041;-79
2023/09/29 00:37:54;;;;;;;24.52;7.13;;;16.00;99.90;;;;;;5070411;28;20051;-79
2023/09/29 00:40:21;;;;;;;24.80;5.30;;;16.10;99.90;;;;;;5071849;28;20052;-79
2023/09/29 00:42:48;;;;;;;28.15;5.50;;;16.00;99.90;;;;;;5072763;28;20407;-79
2023/09/29 00:45:22;;;;;;;22.30;5.20;;;16.00;99.90;;;;;;5069892;28;20044;-79
2023/09/29 00:47:50;;;;;;;25.10;6.15;;;16.10;99.90;;;;;;5072555;28;20055;-80
2023/09/29 00:50:17;;;;;;;;;;;16.10;99.90;;;;;;5070528;28;20037;-79
2023/09/29 00:52:50;;;;;;;17.98;4.70;;;16.10;99.90;;;;;;5074200;28;19999;-79
2023/09/29 00:55:22;;;;;;;19.10;5.38;;;16.10;99.90;;;;;;5069350;28;20056;-80
2023/09/29 00:57:51;;;;;;;21.30;4.95;;;16.10;99.90;;;;;;5077904;28;20064;-79
2023/09/29 01:00:30;;;;;;;22.10;4.90;;;16.10;99.90;;;;;;5077624;28;20504;-80
2023/09/29 01:03:06;;;;;;;25.83;5.60;;;16.00;99.90;;;;;;5066739;28;20037;-79
2023/09/29 01:05:38;;;;;;;22.23;5.55;;;16.10;99.90;;;;;;5067854;28;20077;-79
2023/09/29 01:08:12;;;;;;;20.30;5.65;;;16.10;99.90;;;;;;5066082;28;20525;-81
2023/09/29 01:10:53;;;;;;;21.63;4.93;;;16.10;99.90;;;;;;5061686;28;20095;-80
2023/09/29 01:13:19;;;;;;;19.55;6.18;;;16.10;99.90;;;;;;5066746;28;20045;-82
2023/09/29 01:15:45;;;;;;;23.63;5.70;;;16.20;99.90;;;;;;5070971;28;20095;-79
2023/09/29 01:18:11;;;;;;;21.05;5.05;;;16.10;99.90;;;;;;5076808;28;20136;-81
2023/09/29 01:20:40;;;;;;;25.30;5.10;;;16.10;99.90;;;;;;5081338;28;20119;-79
2023/09/29 01:23:07;;;;;;;25.23;6.28;;;16.00;99.90;;;;;;5083910;28;20088;-81
2023/09/29 01:25:34;;;;;;;22.27;5.10;;;16.00;99.90;;;;;;5066416;28;20036;-80
2023/09/29 01:28:01;;;;;;;20.80;5.03;;;16.00;99.90;;;;;;5049361;28;20112;-80
2023/09/29 01:30:27;;;;;;;20.52;5.60;;;16.00;99.90;;;;;;5084565;28;20044;-80
2023/09/29 01:32:56;;;;;;;22.98;5.60;;;16.00;99.90;;;;;;5062423;28;20124;-80
2023/09/29 01:35:24;;;;;;;29.13;9.40;;;16.00;99.90;;;;;;5081279;28;20045;-80
2023/09/29 01:37:54;;;;;;;24.00;6.97;;;16.00;99.90;;;;;;5068040;28;20048;-80
2023/09/29 01:40:23;;;;;;;22.85;5.75;;;16.00;99.90;;;;;;5064183;28;20040;-80
2023/09/29 01:42:53;;;;;;;21.60;5.25;;;16.00;99.90;;;;;;5048957;28;20040;-80
2023/09/29 01:45:21;;;;;;;23.63;7.20;;;16.00;99.90;;;;;;5067493;28;20049;-79
2023/09/29 01:47:47;;;;;;;;;;;16.00;99.90;;;;;;5071731;28;20102;-79
2023/09/29 01:50:17;;;;;;;21.45;5.35;;;16.00;99.90;;;;;;5067340;28;19972;-80
2023/09/29 01:52:44;;;;;;;25.60;5.00;;;16.00;99.90;;;;;;5069099;28;20474;-79
2023/09/29 01:55:14;;;;;;;27.42;5.38;;;16.00;99.90;;;;;;5044246;28;20186;-80
2023/09/29 01:57:42;;;;;;;28.05;6.90;;;15.90;99.90;;;;;;5055716;28;20099;-80
2023/09/29 02:00:14;;;;;;;24.75;6.22;;;16.00;99.90;;;;;;5049900;28;20052;-80
2023/09/29 02:02:43;;;;;;;17.02;5.32;;;16.00;99.90;;;;;;5073904;28;20078;-81
2023/09/29 02:05:11;;;;;;;20.42;5.57;;;15.90;99.90;;;;;;5046117;28;20040;-80
2023/09/29 02:07:37;;;;;;;23.05;6.18;;;16.00;99.90;;;;;;5065374;28;20049;-79
2023/09/29 02:10:03;;;;;;;26.85;6.38;;;15.90;99.90;;;;;;5060561;28;20071;-80
2023/09/29 02:12:29;;;;;;;23.67;5.70;;;15.90;99.90;;;;;;5038112;28;20055;-80
2023/09/29 02:14:55;;;;;;;22.85;6.10;;;15.90;99.90;;;;;;5072437;28;20049;-81
2023/09/29 02:17:21;;;;;;;18.73;5.63;;;15.90;99.90;;;;;;5066881;28;20128;-80
2023/09/29 02:19:47;;;;;;;17.15;5.38;;;16.00;99.90;;;;;;5081445;28;20068;-80
2023/09/29 02:22:16;;;;;;;26.13;6.35;;;16.00;99.90;;;;;;5060269;28;20045;-80
2023/09/29 02:24:45;;;;;;;18.95;5.18;;;16.00;99.90;;;;;;5055693;28;20132;-80
2023/09/29 02:27:11;;;;;;;21.92;5.65;;;15.90;99.90;;;;;;5067777;28;20052;-80
2023/09/29 02:29:36;;;;;;;18.77;5.43;;;16.00;99.90;;;;;;5057362;28;20048;-81
2023/09/29 02:32:02;;;;;;;16.58;4.97;;;16.00;99.90;;;;;;5047606;28;20048;-79
2023/09/29 02:34:28;;;;;;;17.50;5.25;;;16.00;99.90;;;;;;5058863;28;20077;-79
2023/09/29 02:36:57;;;;;;;22.88;5.78;;;16.00;99.90;;;;;;5076924;28;20041;-80
2023/09/29 02:39:25;;;;;;;18.42;4.82;;;16.00;99.90;;;;;;5077831;28;20102;-80
2023/09/29 02:41:54;;;;;;;26.33;4.95;;;16.00;99.90;;;;;;5071155;28;20036;-79
2023/09/29 02:44:20;;;;;;;19.27;4.82;;;16.10;99.90;;;;;;5059412;28;20037;-79
2023/09/29 02:46:45;;;;;;;19.02;5.00;;;16.10;99.90;;;;;;5059099;28;20036;-79
2023/09/29 02:49:11;;;;;;;22.05;4.93;;;16.10;99.90;;;;;;5073701;28;20046;-79
2023/09/29 02:51:37;;;;;;;18.33;5.32;;;16.10;99.90;;;;;;5072919;28;20044;-79
2023/09/29 02:54:03;;;;;;;14.27;4.55;;;16.10;99.90;;;;;;5063556;28;20040;-80
2023/09/29 02:56:29;;;;;;;23.95;5.38;;;16.10;99.90;;;;;;5069913;28;20095;-79
2023/09/29 02:58:56;;;;;;;18.42;4.60;;;16.10;99.90;;;;;;5046646;28;20048;-80
2023/09/29 03:01:22;;;;;;;21.00;5.10;;;16.10;99.90;;;;;;5081316;28;20049;-79
2023/09/29 03:03:54;;;;;;;20.33;5.53;;;16.10;99.90;;;;;;5071249;28;20132;-80
2023/09/29 03:06:23;;;;;;;22.23;4.90;;;16.10;99.90;;;;;;5057247;28;20073;-80
2023/09/29 03:08:54;;;;;;;13.23;4.13;;;16.10;99.90;;;;;;5056754;28;20029;-80
2023/09/29 03:11:25;;;;;;;22.05;5.53;;;16.10;99.90;;;;;;5057378;28;20040;-80
2023/09/29 03:13:54;;;;;;;19.05;4.40;;;16.10;99.90;;;;;;5064945;28;20052;-80
2023/09/29 03:16:20;;;;;;;19.30;5.18;;;16.10;99.90;;;;;;5058519;28;20044;-79
2023/09/29 03:18:46;;;;;;;23.55;6.30;;;16.10;99.90;;;;;;5050561;28;20049;-80
2023/09/29 03:21:12;;;;;;;19.52;4.72;;;16.10;99.90;;;;;;5063655;28;20387;-80
2023/09/29 03:23:37;;;;;;;18.17;5.05;;;16.00;99.90;;;;;;5059295;28;20037;-79
2023/09/29 03:26:04;;;;;;;13.13;3.80;;;16.00;99.90;;;;;;5064639;28;20510;-80
2023/09/29 03:28:31;;;;;;;18.33;4.70;;;16.10;99.90;;;;;;5066206;28;20374;-80
2023/09/29 03:31:00;;;;;;;15.07;3.95;;;16.00;99.90;;;;;;5064034;28;20786;-80
2023/09/29 03:33:25;;;;;;;18.00;5.10;;;16.10;99.90;;;;;;5063952;28;20056;-79
2023/09/29 03:35:54;;;;;;;19.35;5.20;;;16.10;99.90;;;;;;5068649;28;20052;-80
2023/09/29 03:38:20;;;;;;;17.15;4.53;;;16.10;99.90;;;;;;5064596;28;20047;-80
2023/09/29 03:40:50;;;;;;;20.45;5.03;;;15.90;99.90;;;;;;5072417;28;20391;-79
2023/09/29 03:43:16;;;;;;;18.95;4.78;;;16.10;99.90;;;;;;5064399;28;20041;-80
2023/09/29 03:45:42;;;;;;;21.15;4.43;;;16.10;99.90;;;;;;5053166;28;20044;-79
2023/09/29 03:48:09;;;;;;;17.35;4.53;;;16.10;99.90;;;;;;5065416;28;20048;-79
2023/09/29 03:50:35;;;;;;;18.48;5.00;;;16.10;99.90;;;;;;5061564;28;20033;-79
2023/09/29 03:53:04;;;;;;;16.83;4.90;;;16.10;99.90;;;;;;5059784;28;20395;-82
2023/09/29 03:55:29;;;;;;;23.05;5.35;;;16.20;99.90;;;;;;5058792;28;20067;-80
2023/09/29 03:57:55;;;;;;;17.55;4.93;;;16.20;99.90;;;;;;5081010;28;20040;-80
2023/09/29 04:00:21;;;;;;;20.95;4.97;;;16.20;99.90;;;;;;5060064;28;20136;-79
2023/09/29 04:02:50;;;;;;;19.83;5.60;;;16.20;99.90;;;;;;5061404;28;20044;-79
2023/09/29 04:05:18;;;;;;;18.70;5.10;;;16.20;99.90;;;;;;5068378;28;20146;-80
2023/09/29 04:07:44;;;;;;;22.73;5.23;;;16.30;99.90;;;;;;5064861;28;20049;-79
2023/09/29 04:10:11;;;;;;;22.10;5.32;;;16.30;99.90;;;;;;5066136;28;20318;-81
2023/09/29 04:12:40;;;;;;;17.20;5.03;;;16.30;99.90;;;;;;5049718;28;20067;-81
2023/09/29 04:15:10;;;;;;;18.02;5.40;;;16.30;99.90;;;;;;5050919;28;20079;-79
2023/09/29 04:17:36;;;;;;;18.58;5.32;;;16.30;99.90;;;;;;5051756;28;20075;-80
2023/09/29 04:20:03;;;;;;;18.20;6.00;;;16.40;99.90;;;;;;5072207;28;20037;-81
2023/09/29 04:22:29;;;;;;;23.85;5.90;;;16.40;99.90;;;;;;5074618;28;20037;-80
2023/09/29 04:24:56;;;;;;;24.38;5.15;;;16.40;99.90;;;;;;5074712;28;20048;-80
2023/09/29 04:27:23;;;;;;;14.25;5.20;;;16.40;99.90;;;;;;5070675;28;20038;-80
2023/09/29 04:29:49;;;;;;;17.50;4.87;;;16.70;99.90;;;;;;5076945;28;20041;-79
2023/09/29 04:32:15;;;;;;;25.88;6.68;;;16.40;99.90;;;;;;5067001;28;20049;-79
2023/09/29 04:34:41;;;;;;;18.83;4.95;;;16.60;99.90;;;;;;5087644;28;20522;-78
2023/09/29 04:37:10;;;;;;;23.52;5.32;;;16.50;99.90;;;;;;5086405;28;20056;-79
2023/09/29 04:39:35;;;;;;;19.00;6.47;;;16.50;99.90;;;;;;5091650;28;20079;-80
2023/09/29 04:42:04;;;;;;;15.00;4.97;;;16.50;99.90;;;;;;5084055;28;20105;-80
2023/09/29 04:44:31;;;;;;;16.67;5.43;;;16.50;99.90;;;;;;5085922;28;20017;-79
2023/09/29 04:46:56;;;;;;;22.00;5.35;;;16.50;99.90;;;;;;5085559;28;20050;-80
2023/09/29 04:49:25;;;;;;;20.15;6.55;;;16.50;99.90;;;;;;5080314;28;20067;-80
2023/09/29 04:51:51;;;;;;;22.38;5.45;;;16.50;99.90;;;;;;5081740;28;20100;-80
2023/09/29 04:54:16;;;;;;;18.52;4.85;;;16.50;99.90;;;;;;5087187;28;20056;-80
2023/09/29 04:56:42;;;;;;;19.42;5.07;;;16.50;99.90;;;;;;5083159;28;20414;-79
2023/09/29 04:59:08;;;;;;;15.32;5.03;;;16.50;99.90;;;;;;5078064;28;20052;-81
2023/09/29 05:01:36;;;;;;;18.48;5.32;;;16.50;99.90;;;;;;5076158;28;20082;-82
2023/09/29 05:04:02;;;;;;;25.88;5.63;;;16.50;99.90;;;;;;5094181;28;20080;-79
2023/09/29 05:06:31;;;;;;;20.63;6.35;;;16.50;99.90;;;;;;5083331;28;20112;-79
2023/09/29 05:08:57;;;;;;;18.52;5.45;;;16.40;99.90;;;;;;5080706;28;20048;-78
2023/09/29 05:11:25;;;;;;;18.38;5.43;;;16.40;99.90;;;;;;5078074;28;20105;-79
2023/09/29 05:13:52;;;;;;;15.80;5.57;;;16.40;99.90;;;;;;5077088;28;20037;-80
2023/09/29 05:16:19;;;;;;;22.48;5.70;;;16.40;99.90;;;;;;5070986;28;20037;-79
2023/09/29 05:18:45;;;;;;;21.73;5.53;;;16.40;99.90;;;;;;5071077;28;20037;-78
2023/09/29 05:21:15;;;;;;;15.25;5.60;;;16.30;99.90;;;;;;5074370;28;20041;-79
2023/09/29 05:23:44;;;;;;;17.55;5.82;;;16.30;99.90;;;;;;5072938;28;20041;-80
2023/09/29 05:26:11;;;;;;;22.60;5.82;;;16.30;99.90;;;;;;5074736;28;20083;-79
2023/09/29 05:28:39;;;;;;;26.38;5.57;;;16.30;99.90;;;;;;5071542;28;20032;-80
2023/09/29 05:31:05;;;;;;;16.55;5.53;;;16.30;99.90;;;;;;5068341;28;20044;-79
2023/09/29 05:33:31;;;;;;;17.45;5.82;;;16.30;99.90;;;;;;5070905;28;20074;-79
2023/09/29 05:36:00;;;;;;;13.55;5.35;;;16.40;99.90;;;;;;5066254;28;20044;-79
2023/09/29 05:38:25;;;;;;;17.02;6.20;;;16.40;99.90;;;;;;5066522;28;20044;-79
2023/09/29 05:40:52;;;;;;;21.08;6.05;;;16.40;99.90;;;;;;5063240;28;20119;-79
2023/09/29 05:43:21;;;;;;;15.98;6.20;;;16.30;99.90;;;;;;5064294;28;20044;-79
2023/09/29 05:45:47;;;;;;;17.23;6.45;;;16.40;99.90;;;;;;5059829;28;20537;-80
2023/09/29 05:48:14;;;;;;;22.67;5.95;;;16.40;99.90;;;;;;5068902;28;20120;-78
2023/09/29 05:50:39;;;;;;;18.33;6.60;;;16.30;99.90;;;;;;5061751;28;20085;-78
2023/09/29 05:53:05;;;;;;;20.48;5.68;;;16.40;99.90;;;;;;5053968;28;20119;-79
2023/09/29 05:55:31;;;;;;;24.13;6.88;;;16.30;99.90;;;;;;5050922;28;20525;-79
2023/09/29 05:57:57;;;;;;;15.98;5.40;;;16.30;99.90;;;;;;5072116;28;20036;-78
2023/09/29 06:00:25;;;;;;;19.20;6.18;;;16.30;99.90;;;;;;5074189;28;20040;-78
2023/09/29 06:02:51;;;;;;;14.93;5.95;;;16.40;99.90;;;;;;5065110;28;20052;-79
2023/09/29 06:05:17;;;;;;;18.50;6.40;;;16.40;99.90;;;;;;5069305;28;20132;-80
2023/09/29 06:07:43;;;;;;;20.05;6.13;;;16.40;99.90;;;;;;5062418;28;20047;-79
2023/09/29 06:10:12;;;;;;;12.30;5.68;;;16.40;99.90;;;;;;5068455;28;20102;-78
2023/09/29 06:12:38;;;;;;;19.27;6.32;;;16.40;99.90;;;;;;5067000;28;20036;-79
2023/09/29 06:15:05;;;;;;;16.50;6.25;;;16.50;99.90;;;;;;5071766;28;20544;-78
2023/09/29 06:17:31;;;;;;;15.38;6.30;;;16.50;99.90;;;;;;5069794;28;20056;-79
2023/09/29 06:19:57;;;;;;;18.15;7.28;;;16.50;99.90;;;;;;5066603;28;20044;-78
2023/09/29 06:22:25;;;;;;;20.00;6.55;;;16.50;99.90;;;;;;5067651;28;20143;-79
2023/09/29 06:24:50;;;;;;;20.83;6.32;;;16.50;99.90;;;;;;5062159;28;20045;-79
2023/09/29 06:27:19;;;;;;;17.55;6.35;;;16.50;99.90;;;;;;5068114;28;20041;-77
2023/09/29 06:29:49;;;;;;;14.52;5.68;;;16.50;99.90;;;;;;5065625;28;20427;-79
2023/09/29 06:32:19;;;;;;;27.85;5.88;;;16.50;99.90;;;;;;5070493;28;20084;-79
2023/09/29 06:34:47;;;;;;;20.38;6.00;;;16.50;99.90;;;;;;5056310;28;20047;-78
2023/09/29 06:37:13;;;;;;;17.90;6.18;;;16.60;99.90;;;;;;5056138;28;20037;-78
2023/09/29 06:39:39;;;;;;;17.70;5.65;;;16.50;99.90;;;;;;5060750;28;20167;-80
2023/09/29 06:42:10;;;;;;;15.73;5.43;;;16.60;99.90;;;;;;5076211;28;20079;-80
2023/09/29 06:44:36;;;;;;;17.13;5.53;;;16.60;99.90;;;;;;5078213;28;20036;-81
2023/09/29 06:47:01;;;;;;;15.02;6.32;;;16.60;99.90;;;;;;5059167;28;20059;-80
2023/09/29 06:49:27;;;;;;;15.20;5.70;;;16.60;99.90;;;;;;5075966;28;20045;-80
2023/09/29 06:51:53;;;;;;;15.55;5.60;;;16.60;99.90;;;;;;5061039;28;20127;-79
2023/09/29 06:54:18;;;;;;;18.75;6.03;;;16.70;99.90;;;;;;5077402;28;20037;-80
2023/09/29 06:56:44;;;;;;;15.88;6.50;;;16.70;99.90;;;;;;5068285;28;20036;-80
2023/09/29 06:59:11;;;;;;;18.17;6.13;;;16.70;99.90;;;;;;5069505;28;20029;-80
2023/09/29 07:01:39;;;;;;;18.33;6.38;;;16.70;99.90;;;;;;5061623;28;20482;-78
2023/09/29 07:04:05;;;;;;;13.95;5.80;;;16.80;99.90;;;;;;5074297;28;20090;-80
2023/09/29 07:06:30;;;;;;;18.52;6.70;;;16.80;99.90;;;;;;5093635;28;20044;-79
2023/09/29 07:08:56;;;;;;;18.75;6.35;;;16.90;99.90;;;;;;5061921;28;20041;-81
2023/09/29 07:11:22;;;;;;;18.98;6.20;;;17.00;99.90;;;;;;5072251;28;20075;-81
2023/09/29 07:13:47;;;;;;;15.15;6.15;;;17.00;99.90;;;;;;5076667;28;20040;-80
2023/09/29 07:16:13;;;;;;;16.50;6.38;;;17.10;99.90;;;;;;5083897;28;20033;-80
2023/09/29 07:18:41;;;;;;;14.63;6.00;;;17.10;99.90;;;;;;5040946;28;20124;-79
2023/09/29 07:21:06;;;;;;;19.25;6.85;;;17.20;99.90;;;;;;5064720;28;20536;-80
2023/09/29 07:23:35;;;;;;;18.50;6.03;;;17.30;99.90;;;;;;5072441;28;20044;-80
2023/09/29 07:26:01;;;;;;;17.65;6.90;;;17.30;99.90;;;;;;5056522;28;20053;-79
2023/09/29 07:28:26;;;;;;;13.32;5.28;;;17.40;99.90;;;;;;5072363;28;20348;-79
2023/09/29 07:30:52;;;;;;;17.52;6.22;;;17.50;99.90;;;;;;5067543;28;20119;-79
2023/09/29 07:33:18;;;;;;;16.63;5.63;;;17.50;99.90;;;;;;5070369;28;20045;-81
2023/09/29 07:35:44;;;;;;;14.52;5.63;;;17.50;99.90;;;;;;5052239;28;20047;-80
2023/09/29 07:38:11;;;;;;;12.52;5.93;;;17.50;99.90;;;;;;5067872;28;20052;-80
2023/09/29 07:40:37;;;;;;;12.00;5.32;;;17.60;99.90;;;;;;5090156;28;20056;-80
2023/09/29 07:43:07;;;;;;;14.27;5.68;;;17.60;99.90;;;;;;5067940;28;20041;-80
2023/09/29 07:45:34;;;;;;;14.98;5.78;;;17.70;99.90;;;;;;5057687;28;20037;-80
2023/09/29 07:48:00;;;;;;;14.20;5.47;;;17.70;99.90;;;;;;5038790;28;20048;-80
2023/09/29 07:50:29;;;;;;;15.45;5.15;;;17.80;99.90;;;;;;5091424;28;20044;-81
2023/09/29 07:52:55;;;;;;;13.45;5.25;;;17.90;99.90;;;;;;5067002;28;20036;-80
2023/09/29 07:55:24;;;;;;;10.70;5.47;;;17.90;99.90;;;;;;5059472;28;20060;-80
2023/09/29 07:57:51;;;;;;;15.98;5.63;;;17.90;99.90;;;;;;5062373;28;20032;-80
2023/09/29 08:00:17;;;;;;;14.48;5.00;;;18.00;99.90;;;;;;5072737;28;20041;-80
2023/09/29 08:02:43;;;;;;;11.93;5.05;;;18.20;99.90;;;;;;5067976;28;20170;-81
2023/09/29 08:05:12;;;;;;;13.50;5.07;;;18.20;99.90;;;;;;5066850;28;20095;-80
2023/09/29 08:07:39;;;;;;;16.65;5.30;;;18.40;99.90;;;;;;5078246;28;20037;-80
2023/09/29 08:10:11;;;;;;;11.88;4.53;;;18.50;99.90;;;;;;5065473;28;20045;-80
2023/09/29 08:12:38;;;;;;;26.40;4.85;;;18.70;99.90;;;;;;5067009;28;20055;-80
2023/09/29 08:15:08;;;;;;;9.70;4.55;;;18.80;99.90;;;;;;5075946;28;20041;-80
2023/09/29 08:17:33;;;;;;;13.07;4.90;;;18.90;99.90;;;;;;5076634;28;20041;-79
2023/09/29 08:19:59;;;;;;;11.82;4.30;;;19.20;99.90;;;;;;5065903;28;20159;-79
2023/09/29 08:22:26;;;;;;;12.85;4.53;;;19.00;99.90;;;;;;5048029;28;20109;-79
2023/09/29 08:24:51;;;;;;;10.80;4.32;;;19.10;99.90;;;;;;5080784;28;20049;-79
2023/09/29 08:27:17;;;;;;;9.75;4.25;;;19.20;99.90;;;;;;5078099;28;20065;-79
2023/09/29 08:29:43;;;;;;;12.00;4.55;;;19.30;99.90;;;;;;5072186;28;20050;-79
2023/09/29 08:32:08;;;;;;;11.25;3.58;;;19.40;99.90;;;;;;5074148;28;20041;-79
2023/09/29 08:34:36;;;;;;;7.53;3.95;;;19.50;99.90;;;;;;5066057;28;20053;-80
2023/09/29 08:37:02;;;;;;;10.32;4.03;;;19.60;99.90;;;;;;5084101;28;20044;-80
2023/09/29 08:39:29;;;;;;;12.05;4.18;;;19.60;99.90;;;;;;5086712;28;20131;-79
2023/09/29 08:42:03;;;;;;;7.85;3.97;;;19.70;99.90;;;;;;5088279;28;20052;-79
2023/09/29 08:44:29;;;;;;;7.82;3.70;;;19.70;99.90;;;;;;5085932;28;20041;-80
2023/09/29 08:47:00;;;;;;;10.82;3.70;;;19.80;99.90;;;;;;5086660;28;20040;-79
2023/09/29 08:49:30;;;;;;;6.30;3.50;;;19.90;99.90;;;;;;5070142;28;20053;-80
2023/09/29 08:51:57;;;;;;;8.18;3.83;;;20.00;99.90;;;;;;5069423;28;20049;-80
2023/09/29 08:54:25;;;;;;;11.23;3.50;;;20.10;99.90;;;;;;5049047;28;20107;-81
2023/09/29 08:56:51;;;;;;;11.60;4.00;;;20.10;99.90;;;;;;5069809;28;20108;-81
2023/09/29 08:59:17;;;;;;;10.50;3.80;;;20.20;99.90;;;;;;5076162;28;20059;-79
2023/09/29 09:01:43;;;;;;;5.90;3.55;;;20.30;99.90;;;;;;5075670;28;20063;-81
2023/09/29 09:04:09;;;;;;;8.90;3.58;;;20.40;99.90;;;;;;5073570;28;20049;-79
2023/09/29 09:06:35;;;;;;;13.30;4.35;;;20.50;99.90;;;;;;5071543;28;20049;-79
2023/09/29 09:09:04;;;;;;;9.60;3.78;;;20.60;99.90;;;;;;5079796;28;20048;-79
2023/09/29 09:11:41;;;;;;;6.68;3.70;;;20.70;99.90;;;;;;5086134;28;20041;-80
2023/09/29 09:14:09;;;;;;;9.03;4.57;;;20.80;99.90;;;;;;5073802;28;20048;-80
2023/09/29 09:16:38;;;;;;;6.18;3.53;;;20.70;99.90;;;;;;5072401;28;20317;-80
2023/09/29 09:19:15;;;;;;;7.45;3.10;;;20.60;99.90;;;;;;5089540;28;20088;-80
2023/09/29 09:21:46;;;;;;;9.07;3.75;;;20.50;99.90;;;;;;5082302;28;20079;-80
2023/09/29 09:24:21;;;;;;;11.20;3.40;;;20.50;99.90;;;;;;5067633;28;20053;-80
2023/09/29 09:26:47;;;;;;;10.45;3.90;;;20.60;99.90;;;;;;5063598;28;20056;-80
2023/09/29 09:29:16;;;;;;;8.18;3.10;;;20.60;99.90;;;;;;5062252;28;20044;-81
2023/09/29 09:31:44;;;;;;;7.72;2.88;;;20.80;99.90;;;;;;5078104;28;20041;-81
2023/09/29 09:34:10;;;;;;;6.10;3.40;;;20.90;99.90;;;;;;5061765;28;20056;-81
2023/09/29 09:36:50;;;;;;;8.98;3.50;;;21.10;99.90;;;;;;5056687;28;20475;-82
2023/09/29 09:39:17;;;;;;;8.48;3.80;;;21.20;99.90;;;;;;5072115;28;20451;-81
2023/09/29 09:41:43;;;;;;;10.82;3.10;;;21.30;99.90;;;;;;5062270;28;20071;-80
2023/09/29 09:44:11;;;;;;;8.10;3.10;;;21.40;99.90;;;;;;5056688;28;20049;-80
2023/09/29 09:46:40;;;;;;;8.13;3.22;;;21.50;99.90;;;;;;5055207;28;20123;-80
2023/09/29 09:49:13;;;;;;;6.55;3.30;;;21.60;99.90;;;;;;5057572;28;20090;-80
2023/09/29 09:51:44;;;;;;;8.75;3.28;;;21.50;99.90;;;;;;5074336;28;20071;-79
2023/09/29 09:54:12;;;;;;;8.30;3.13;;;21.40;99.90;;;;;;5073185;28;20048;-82
2023/09/29 09:57:11;;;;;;;8.07;3.30;;;21.30;99.90;;;;;;5057024;28;20049;-80
2023/09/29 09:59:39;;;;;;;8.57;3.38;;;21.30;99.90;;;;;;5076942;28;20493;-80
2023/09/29 10:02:07;;;;;;;9.02;3.25;;;21.20;99.90;;;;;;5044838;28;20044;-80
2023/09/29 10:04:38;;;;;;;7.55;2.90;;;21.20;99.90;;;;;;5057930;28;20467;-81
2023/09/29 10:07:05;;;;;;;9.23;3.30;;;21.10;99.90;;;;;;5071813;28;20051;-80
2023/09/29 10:09:43;;;;;;;9.77;3.40;;;21.10;99.90;;;;;;5074610;28;20044;-80
2023/09/29 10:12:20;;;;;;;9.13;3.55;;;21.10;99.90;;;;;;5064583;28;20049;-81
2023/09/29 10:14:46;;;;;;;7.97;3.45;;;21.00;99.90;;;;;;5040678;28;20048;-80
2023/09/29 10:17:13;;;;;;;6.45;3.53;;;21.00;99.90;;;;;;5071971;28;20082;-79
2023/09/29 10:19:39;;;;;;;13.73;3.80;;;20.90;99.90;;;;;;5075623;28;20143;-80
2023/09/29 10:22:06;;;;;;;13.52;3.95;;;20.90;99.90;;;;;;5062864;28;20077;-79
2023/09/29 10:24:33;;;;;;;12.10;3.88;;;20.90;99.90;;;;;;5056941;28;20523;-79
2023/09/29 10:27:03;;;;;;;10.25;3.53;;;21.30;99.90;;;;;;5063675;28;20041;-80
2023/09/29 10:29:32;;;;;;;8.52;3.78;;;21.60;99.90;;;;;;5076706;28;20052;-81
2023/09/29 10:32:13;;;;;;;11.38;3.58;;;21.80;99.90;;;;;;5055857;28;20051;-81
2023/09/29 10:34:40;;;;;;;9.52;4.20;;;21.80;99.90;;;;;;5075717;28;20083;-81
2023/09/29 10:37:09;;;;;;;6.17;3.57;;;21.80;99.90;;;;;;5071343;28;20040;-81
2023/09/29 10:39:36;;;;;;;11.90;3.78;;;21.60;99.90;;;;;;5039922;28;20305;-80
2023/09/29 10:42:13;;;;;;;10.25;4.03;;;21.60;99.90;;;;;;5077387;28;20083;-80
2023/09/29 10:44:47;;;;;;;12.00;4.10;;;21.50;99.90;;;;;;5077445;28;20049;-80
2023/09/29 10:47:16;;;;;;;9.23;4.03;;;21.30;99.90;;;;;;5068881;28;20073;-80
2023/09/29 10:49:46;;;;;;;9.65;4.40;;;21.20;99.90;;;;;;5065540;28;20394;-80
2023/09/29 10:52:19;;;;;;;9.93;3.85;;;21.10;99.90;;;;;;5057099;28;20144;-80
2023/09/29 10:54:45;;;;;;;10.75;3.97;;;21.10;99.90;;;;;;5059570;28;20083;-80
2023/09/29 10:57:11;;;;;;;9.13;4.28;;;20.90;99.90;;;;;;5076863;28;20052;-80
2023/09/29 10:59:47;;;;;;;10.10;3.95;;;20.80;99.90;;;;;;5078202;28;20045;-79
2023/09/29 11:02:13;;;;;;;9.93;4.30;;;20.80;99.90;;;;;;5065255;28;20071;-79
2023/09/29 11:04:39;;;;;;;10.73;4.38;;;20.80;99.90;;;;;;5076465;28;20046;-80
2023/09/29 11:07:05;;;;;;;9.50;4.28;;;20.70;99.90;;;;;;5061058;28;20092;-80
2023/09/29 11:09:32;;;;;;;13.98;4.53;;;20.70;99.90;;;;;;5068706;28;20036;-80
2023/09/29 11:11:58;;;;;;;7.63;4.40;;;20.80;99.90;;;;;;5078473;28;20041;-81
2023/09/29 11:14:36;;;;;;;10.73;4.32;;;20.80;99.90;;;;;;5078316;28;20512;-80
2023/09/29 11:17:02;;;;;;;10.23;4.47;;;20.80;99.90;;;;;;5066339;28;20036;-81
2023/09/29 11:19:30;;;;;;;13.82;4.82;;;20.80;99.90;;;;;;5075443;28;20556;-80
2023/09/29 11:22:01;;;;;;;8.98;4.63;;;20.70;99.90;;;;;;5077621;28;20083;-80
2023/09/29 11:24:40;;;;;;;10.23;4.95;;;20.60;99.90;;;;;;5094801;28;20479;-80
2023/09/29 11:27:06;;;;;;;9.82;4.25;;;20.60;99.90;;;;;;5066856;28;20052;-80
2023/09/29 11:29:32;;;;;;;11.60;4.63;;;20.60;99.90;;;;;;5059617;28;20049;-80
2023/09/29 11:32:01;;;;;;;9.93;4.32;;;20.50;99.90;;;;;;5064152;28;20044;-80
2023/09/29 11:34:29;;;;;;;9.85;4.53;;;20.50;99.90;;;;;;5045721;28;20053;-80
2023/09/29 11:36:55;;;;;;;11.88;4.93;;;20.50;99.90;;;;;;5081754;28;20123;-80
2023/09/29 11:39:22;;;;;;;11.43;5.40;;;20.40;99.90;;;;;;5066487;28;20045;-81
2023/09/29 11:41:48;;;;;;;18.73;5.35;;;20.30;99.90;;;;;;5066511;28;20045;-80
2023/09/29 11:44:17;;;;;;;9.70;4.53;;;20.30;99.90;;;;;;5066637;28;20060;-80
2023/09/29 11:46:43;;;;;;;12.80;4.82;;;20.30;99.90;;;;;;5067905;28;20049;-79
2023/09/29 11:49:11;;;;;;;13.38;5.85;;;20.20;99.90;;;;;;5075019;28;20487;-78
2023/09/29 11:51:37;;;;;;;12.57;5.72;;;20.10;99.90;;;;;;5067100;28;20071;-79
2023/09/29 11:54:03;;;;;;;11.35;5.90;;;20.00;99.90;;;;;;5067772;28;20037;-79
2023/09/29 11:56:29;;;;;;;10.52;5.93;;;19.90;99.90;;;;;;5079996;28;20040;-79
2023/09/29 11:58:55;;;;;;;16.33;6.22;;;19.90;99.90;;;;;;5077118;28;20041;-80
2023/09/29 12:01:21;;;;;;;12.60;6.45;;;19.90;99.90;;;;;;5071121;28;20056;-80
2023/09/29 12:03:47;;;;;;;14.77;6.35;;;19.80;99.90;;;;;;5086804;28;20082;-81
2023/09/29 12:06:13;;;;;;;10.65;6.18;;;19.90;99.90;;;;;;5084575;28;20114;-80
2023/09/29 12:08:39;;;;;;;12.50;6.50;;;19.80;99.90;;;;;;5069686;28;20101;-80
2023/09/29 12:11:05;;;;;;;13.25;6.70;;;19.80;99.90;;;;;;5065320;28;20036;-79
2023/09/29 12:13:33;;;;;;;13.43;6.88;;;19.80;99.90;;;;;;5079591;28;20049;-81
2023/09/29 12:15:59;;;;;;;17.67;6.72;;;19.70;99.90;;;;;;5081147;28;20041;-80
2023/09/29 12:18:28;;;;;;;10.85;3.13;;;19.70;99.90;;;;;;5082250;28;20099;-78
2023/09/29 12:20:55;;;;;;;4.97;2.45;;;19.70;99.90;;;;;;5077040;28;20075;-78
2023/09/29 12:23:22;;;;;;;5.63;2.70;;;19.50;99.90;;;;;;5062322;28;20092;-77
2023/09/29 12:25:50;;;;;;;4.57;1.52;;;19.30;99.90;;;;;;5062903;28;20426;-79
2023/09/29 12:28:15;;;;;;;4.30;1.60;;;19.00;99.90;;;;;;5093844;28;20041;-78
2023/09/29 12:30:44;;;;;;;7.20;1.77;;;18.70;99.90;;;;;;5060678;28;20048;-78
2023/09/29 12:33:10;;;;;;;8.70;2.42;;;18.60;99.90;;;;;;5060828;28;20049;-78
2023/09/29 12:35:39;;;;;;;7.05;1.45;;;18.40;99.90;;;;;;5061681;28;20052;-80
2023/09/29 12:38:05;;;;;;;2.47;1.30;;;18.20;99.90;;;;;;5066911;28;20462;-80
2023/09/29 12:40:32;;;;;;;5.18;1.52;;;18.10;99.90;;;;;;5063868;28;20111;-80